Weather at Amsterdam Airport Schiphol

Public forecast

Using degrees Celsius for public forecast. Weather courtesy of forecast.io.

Current aviation weather report (METAR) for Amsterdam Airport Schiphol

Retrieved 2021/10/19 20:25 UTC (21 minutes ago):

EHAM 192025Z 20014KT 9999 FEW022 17/15 Q1011 NOSIG

Aviation forecast (TAF) for Amsterdam Airport Schiphol

Retrieved 2021/10/19 18:27 UTC (2 hours ago):

TAF TAF EHAM 191701Z 1918/2024 20015KT 9999 FEW025 TEMPO 2006/2010 6000 -RA BKN015 BECMG 2007/2010 23020G30KT SCT018 PROB40 TEMPO 2010/2017 24025G37KT 5000 SHRA BKN014 SCT020CB BECMG 2017/2019 21012KT BECMG 2021/2024 15008KT 6000 RA BKN018